Time;durP1;ratioP1;P1;durP2;ratioP2;P2;SDS_P1;SDS_P2;PMS_P1;PMS_P2;Temp;Humidity;BMP_temperature;BMP_pressure;BME280_temperature;BME280_humidity;BME280_pressure;Samples;Min_cycle;Max_cycle;Signal;HPM_P1;HPM_P2
2023/06/24 00:00:52;;;;;;;4.30;2.75;;;21.10;99.90;;;;;;7391056;19;20135;-79
2023/06/24 00:03:17;;;;;;;4.20;2.67;;;21.10;99.90;;;;;;7389105;19;20464;-80
2023/06/24 00:05:48;;;;;;;3.28;2.38;;;21.30;99.90;;;;;;7390870;19;20161;-78
2023/06/24 00:08:33;;;;;;;2.92;2.33;;;21.20;99.90;;;;;;7388917;19;20130;-81
2023/06/24 00:11:03;;;;;;;4.65;2.42;;;21.20;99.90;;;;;;7389937;19;20141;-80
2023/06/24 00:13:28;;;;;;;7.13;2.90;;;21.00;99.90;;;;;;7391833;19;20130;-79
2023/06/24 00:15:55;;;;;;;4.30;2.95;;;21.00;99.90;;;;;;7389329;19;20218;-80
2023/06/24 00:18:28;;;;;;;2.80;2.50;;;21.10;99.90;;;;;;7388643;19;20658;-78
2023/06/24 00:21:03;;;;;;;3.13;2.50;;;21.10;99.90;;;;;;7390628;19;20138;-80
2023/06/24 00:23:30;;;;;;;3.65;2.58;;;20.80;99.90;;;;;;7390008;19;20160;-80
2023/06/24 00:25:57;;;;;;;3.60;2.70;;;20.90;99.90;;;;;;7392125;19;20559;-79
2023/06/24 00:28:26;;;;;;;4.90;2.83;;;21.00;99.90;;;;;;7389885;19;20135;-80
2023/06/24 00:30:52;;;;;;;3.22;2.50;;;21.10;99.90;;;;;;7392242;19;20127;-80
2023/06/24 00:33:21;;;;;;;3.25;2.53;;;20.60;99.90;;;;;;7392967;19;20559;-80
2023/06/24 00:35:54;;;;;;;3.35;2.72;;;20.80;99.90;;;;;;7393136;19;20139;-79
2023/06/24 00:38:26;;;;;;;2.75;2.53;;;20.70;99.90;;;;;;7395254;19;20586;-80
2023/06/24 00:40:51;;;;;;;4.38;2.78;;;20.70;99.90;;;;;;7393669;19;20650;-78
2023/06/24 00:43:17;;;;;;;3.15;2.63;;;20.80;99.90;;;;;;7394053;19;20138;-78
2023/06/24 00:45:53;;;;;;;5.50;2.55;;;21.00;99.90;;;;;;7390827;19;20150;-78
2023/06/24 00:48:20;;;;;;;3.78;2.83;;;21.00;99.90;;;;;;7391607;19;20151;-80
2023/06/24 00:50:45;;;;;;;3.65;2.60;;;21.10;99.90;;;;;;7387944;19;20166;-80
2023/06/24 00:53:11;;;;;;;3.30;2.72;;;21.00;99.90;;;;;;7389397;19;20130;-79
2023/06/24 00:55:39;;;;;;;4.65;3.25;;;21.00;99.90;;;;;;7389208;19;20607;-81
2023/06/24 00:58:05;;;;;;;4.38;2.97;;;20.90;99.90;;;;;;7392770;19;20145;-79
2023/06/24 01:00:35;;;;;;;3.35;2.85;;;20.70;99.90;;;;;;7382894;19;22334;-80
2023/06/24 01:03:18;;;;;;;4.22;2.78;;;20.80;99.90;;;;;;7390122;19;20167;-80
2023/06/24 01:05:45;;;;;;;3.53;3.00;;;20.80;99.90;;;;;;7390088;19;20150;-78
2023/06/24 01:08:15;;;;;;;4.15;3.47;;;20.80;99.90;;;;;;7392190;19;20137;-80
2023/06/24 01:10:45;;;;;;;4.68;3.00;;;20.80;99.90;;;;;;7395460;19;20155;-80
2023/06/24 01:13:16;;;;;;;3.05;2.78;;;20.80;99.90;;;;;;7395591;19;20161;-79
2023/06/24 01:15:51;;;;;;;4.07;3.20;;;20.70;99.90;;;;;;7402145;19;20142;-79
2023/06/24 01:18:37;;;;;;;3.88;2.92;;;20.70;99.90;;;;;;7408066;19;20138;-78
2023/06/24 01:21:29;;;;;;;5.45;3.30;;;20.90;99.90;;;;;;7405217;19;20494;-79
2023/06/24 01:24:34;;;;;;;3.92;3.00;;;20.80;99.90;;;;;;7401105;19;20154;-79
2023/06/24 01:27:19;;;;;;;3.88;3.35;;;20.80;99.90;;;;;;7396803;19;20146;-79
2023/06/24 01:30:23;;;;;;;3.65;2.97;;;20.70;99.90;;;;;;7392996;19;20225;-79
2023/06/24 01:32:56;;;;;;;3.25;2.75;;;20.70;99.90;;;;;;7389548;19;20134;-78
2023/06/24 01:35:28;;;;;;;4.13;2.80;;;20.70;99.90;;;;;;7389748;19;20510;-79
2023/06/24 01:37:56;;;;;;;3.55;2.63;;;20.70;99.90;;;;;;7387098;19;20478;-80
2023/06/24 01:40:37;;;;;;;4.00;2.88;;;20.70;99.90;;;;;;7388304;19;20190;-78
2023/06/24 01:43:06;;;;;;;5.20;3.05;;;20.70;99.90;;;;;;7388130;19;20534;-78
2023/06/24 01:45:45;;;;;;;3.50;2.67;;;20.70;99.90;;;;;;7385428;19;20182;-78
2023/06/24 01:48:16;;;;;;;4.90;3.20;;;20.60;99.90;;;;;;7389846;19;20507;-80
2023/06/24 01:50:54;;;;;;;4.55;3.08;;;20.50;99.90;;;;;;7386587;19;20153;-79
2023/06/24 01:53:21;;;;;;;3.45;2.88;;;20.40;99.90;;;;;;7387804;19;20150;-78
2023/06/24 01:55:49;;;;;;;3.80;3.15;;;20.40;99.90;;;;;;7380240;19;20131;-82
2023/06/24 01:58:18;;;;;;;4.90;3.03;;;20.40;99.90;;;;;;7389780;19;20131;-79
2023/06/24 02:00:43;;;;;;;3.58;2.55;;;20.40;99.90;;;;;;7386520;19;20157;-80
2023/06/24 02:03:10;;;;;;;4.60;2.90;;;20.40;99.90;;;;;;7387749;19;20457;-78
2023/06/24 02:05:39;;;;;;;2.88;2.58;;;20.60;99.90;;;;;;7384070;19;20131;-78
2023/06/24 02:08:08;;;;;;;3.83;2.90;;;20.60;99.90;;;;;;7387760;19;20505;-80
2023/06/24 02:10:37;;;;;;;5.20;2.63;;;20.50;99.90;;;;;;7387717;19;20141;-79
2023/06/24 02:13:05;;;;;;;5.60;2.88;;;20.40;99.90;;;;;;7387537;19;20146;-79
2023/06/24 02:15:33;;;;;;;5.35;3.22;;;20.40;99.90;;;;;;7385193;19;20149;-79
2023/06/24 02:18:02;;;;;;;4.35;3.03;;;20.30;99.90;;;;;;7388726;19;20586;-78
2023/06/24 02:20:29;;;;;;;3.97;3.08;;;20.20;99.90;;;;;;7387068;19;20150;-79
2023/06/24 02:22:57;;;;;;;5.05;3.05;;;20.30;99.90;;;;;;7384891;19;20190;-78
2023/06/24 02:25:25;;;;;;;4.95;3.25;;;20.20;99.90;;;;;;7385639;19;20137;-81
2023/06/24 02:27:53;;;;;;;4.25;3.10;;;20.20;99.90;;;;;;7387168;19;20138;-79
2023/06/24 02:30:21;;;;;;;4.40;3.00;;;20.10;99.90;;;;;;7387519;19;20576;-79
2023/06/24 02:32:47;;;;;;;3.97;3.00;;;20.10;99.90;;;;;;7388159;19;20525;-79
2023/06/24 02:35:13;;;;;;;3.05;2.60;;;20.10;99.90;;;;;;7388969;19;20131;-79
2023/06/24 02:37:39;;;;;;;2.95;2.53;;;20.00;99.90;;;;;;7386847;19;20130;-79
2023/06/24 02:40:07;;;;;;;3.50;2.70;;;19.90;99.90;;;;;;7380900;19;20142;-79
2023/06/24 02:42:33;;;;;;;3.13;2.70;;;19.90;99.90;;;;;;7387662;19;20147;-79
2023/06/24 02:44:59;;;;;;;4.85;3.17;;;20.00;99.90;;;;;;7389342;19;20579;-80
2023/06/24 02:47:26;;;;;;;3.90;3.35;;;20.10;99.90;;;;;;7387725;19;20214;-78
2023/06/24 02:49:52;;;;;;;4.05;3.28;;;20.10;99.90;;;;;;7387548;19;20514;-78
2023/06/24 02:52:18;;;;;;;4.43;3.47;;;20.00;99.90;;;;;;7393819;19;20147;-79
2023/06/24 02:54:45;;;;;;;5.25;3.30;;;19.90;99.90;;;;;;7390520;19;20131;-78
2023/06/24 02:57:11;;;;;;;3.85;3.10;;;19.90;99.90;;;;;;7387316;19;20257;-79
2023/06/24 02:59:37;;;;;;;4.15;3.60;;;20.00;99.90;;;;;;7391884;19;20173;-78
2023/06/24 03:02:04;;;;;;;3.80;3.03;;;20.00;99.90;;;;;;7390910;19;20628;-80
2023/06/24 03:04:30;;;;;;;4.47;3.63;;;20.00;99.90;;;;;;7393166;19;20206;-79
2023/06/24 03:06:59;;;;;;;3.83;2.92;;;20.00;99.90;;;;;;7393224;19;20164;-78
2023/06/24 03:09:26;;;;;;;5.40;3.35;;;19.90;99.90;;;;;;7391584;19;20511;-78
2023/06/24 03:11:53;;;;;;;3.88;3.22;;;19.90;99.90;;;;;;7389622;19;20161;-78
2023/06/24 03:14:19;;;;;;;4.78;3.67;;;19.90;99.90;;;;;;7391122;19;20135;-78
2023/06/24 03:16:45;;;;;;;5.82;3.38;;;19.90;99.90;;;;;;7390518;19;20143;-80
2023/06/24 03:19:11;;;;;;;6.22;3.50;;;19.80;99.90;;;;;;7393552;19;20154;-79
2023/06/24 03:21:36;;;;;;;4.22;3.25;;;19.70;99.90;;;;;;7390942;19;20138;-79
2023/06/24 03:24:02;;;;;;;3.65;2.80;;;19.70;99.90;;;;;;7391567;19;20130;-79
2023/06/24 03:26:33;;;;;;;5.45;3.17;;;19.70;99.90;;;;;;7391042;19;20135;-79
2023/06/24 03:28:59;;;;;;;4.20;3.15;;;19.70;99.90;;;;;;7390696;19;20150;-78
2023/06/24 03:31:24;;;;;;;4.55;3.28;;;19.80;99.90;;;;;;7390004;19;20163;-78
2023/06/24 03:33:50;;;;;;;3.83;3.08;;;19.80;99.90;;;;;;7392357;19;20161;-80
2023/06/24 03:36:16;;;;;;;4.10;3.25;;;19.80;99.90;;;;;;7389712;19;20454;-79
2023/06/24 03:38:41;;;;;;;4.03;3.63;;;19.80;99.90;;;;;;7389851;19;20131;-78
2023/06/24 03:41:07;;;;;;;4.50;3.78;;;19.80;99.90;;;;;;7389666;19;20261;-80
2023/06/24 03:43:33;;;;;;;4.20;3.28;;;19.80;99.90;;;;;;7390295;19;20485;-78
2023/06/24 03:46:00;;;;;;;4.75;3.40;;;19.80;99.90;;;;;;7390563;19;20154;-78
2023/06/24 03:48:26;;;;;;;4.65;3.33;;;19.80;99.90;;;;;;7390374;19;20230;-78
2023/06/24 03:50:51;;;;;;;3.70;3.03;;;19.50;99.90;;;;;;7390560;19;20150;-80
2023/06/24 03:53:17;;;;;;;4.22;3.08;;;19.20;99.90;;;;;;7388454;19;20161;-78
2023/06/24 03:55:43;;;;;;;4.93;3.00;;;19.30;99.90;;;;;;7387729;19;20143;-79
2023/06/24 03:58:08;;;;;;;6.50;3.40;;;19.50;99.90;;;;;;7389390;19;20155;-78
2023/06/24 04:00:36;;;;;;;3.78;3.28;;;19.60;99.90;;;;;;7388969;19;20138;-79
2023/06/24 04:03:02;;;;;;;6.25;3.15;;;19.60;99.90;;;;;;7390410;19;20150;-79
2023/06/24 04:05:28;;;;;;;4.45;3.55;;;19.70;99.90;;;;;;7386760;19;20151;-78
2023/06/24 04:07:54;;;;;;;4.93;3.40;;;19.80;99.90;;;;;;7390937;19;20142;-79
2023/06/24 04:10:20;;;;;;;4.45;3.55;;;19.90;99.90;;;;;;7391115;19;20157;-79
2023/06/24 04:12:46;;;;;;;4.45;3.33;;;19.90;99.90;;;;;;7391110;19;20131;-79
2023/06/24 04:15:11;;;;;;;4.07;2.95;;;19.80;99.90;;;;;;7389461;19;20214;-79
2023/06/24 04:17:37;;;;;;;4.95;3.67;;;19.80;99.90;;;;;;7389927;19;20157;-79
2023/06/24 04:20:06;;;;;;;3.65;3.08;;;19.90;99.90;;;;;;7389711;19;20134;-79
2023/06/24 04:22:32;;;;;;;3.33;2.60;;;19.80;99.90;;;;;;7390687;19;20602;-78
2023/06/24 04:24:58;;;;;;;3.58;2.70;;;19.80;99.90;;;;;;7386143;19;20150;-78
2023/06/24 04:27:24;;;;;;;4.07;3.17;;;19.80;99.90;;;;;;7389801;19;20142;-79
2023/06/24 04:29:50;;;;;;;3.78;3.15;;;19.50;99.90;;;;;;7387691;19;20154;-79
2023/06/24 04:32:15;;;;;;;3.97;3.30;;;19.70;99.90;;;;;;7389363;19;20164;-79
2023/06/24 04:34:41;;;;;;;5.78;3.47;;;19.80;99.90;;;;;;7388987;19;20138;-79
2023/06/24 04:37:07;;;;;;;3.80;3.05;;;19.90;99.90;;;;;;7388812;19;20141;-79
2023/06/24 04:39:32;;;;;;;3.70;3.20;;;19.90;99.90;;;;;;7387966;19;20158;-77
2023/06/24 04:41:58;;;;;;;4.80;3.08;;;19.90;99.90;;;;;;7388941;19;20498;-79
2023/06/24 04:44:24;;;;;;;4.35;3.15;;;20.00;99.90;;;;;;7387728;19;20509;-79
2023/06/24 04:46:51;;;;;;;3.88;3.00;;;19.90;99.90;;;;;;7385257;19;20158;-79
2023/06/24 04:49:17;;;;;;;4.25;3.15;;;19.80;99.90;;;;;;7387501;19;20177;-79
2023/06/24 04:51:43;;;;;;;4.95;2.90;;;19.70;99.90;;;;;;7386176;19;20138;-78
2023/06/24 04:54:09;;;;;;;3.83;3.15;;;19.80;99.90;;;;;;7387672;19;20238;-78
2023/06/24 04:56:35;;;;;;;4.57;2.88;;;19.80;99.90;;;;;;7387504;19;20669;-78
2023/06/24 04:59:01;;;;;;;4.90;3.10;;;20.00;99.90;;;;;;7388860;19;20564;-79
2023/06/24 05:01:27;;;;;;;4.82;3.20;;;20.20;99.90;;;;;;7388707;19;20138;-80
2023/06/24 05:03:52;;;;;;;4.75;3.60;;;20.30;99.90;;;;;;7388110;19;20147;-79
2023/06/24 05:06:18;;;;;;;5.68;3.50;;;20.20;99.90;;;;;;7387876;19;20138;-79
2023/06/24 05:08:44;;;;;;;5.80;3.50;;;20.20;99.90;;;;;;7386575;19;20150;-79
2023/06/24 05:11:09;;;;;;;4.53;3.75;;;20.30;99.90;;;;;;7389413;19;20179;-79
2023/06/24 05:13:35;;;;;;;4.40;3.00;;;20.30;99.90;;;;;;7386422;19;20150;-80
2023/06/24 05:16:01;;;;;;;4.68;3.17;;;20.10;99.90;;;;;;7387275;19;20259;-79
2023/06/24 05:18:26;;;;;;;3.92;3.25;;;20.10;99.90;;;;;;7387676;19;20214;-79
2023/06/24 05:20:52;;;;;;;3.75;3.15;;;20.30;99.90;;;;;;7387170;19;20142;-79
2023/06/24 05:23:18;;;;;;;5.28;3.60;;;20.40;99.90;;;;;;7390520;19;20167;-79
2023/06/24 05:25:44;;;;;;;3.70;3.22;;;20.40;99.90;;;;;;7382378;19;20143;-79
2023/06/24 05:28:09;;;;;;;4.13;3.17;;;20.30;99.90;;;;;;7387337;19;20894;-80
2023/06/24 05:30:35;;;;;;;3.78;2.97;;;20.30;99.90;;;;;;7386552;19;20134;-81
2023/06/24 05:33:01;;;;;;;4.03;2.85;;;20.30;99.90;;;;;;7387220;19;20549;-80
2023/06/24 05:35:27;;;;;;;3.70;3.10;;;20.50;99.90;;;;;;7387426;19;20456;-79
2023/06/24 05:37:52;;;;;;;6.00;3.60;;;20.50;99.90;;;;;;7388703;19;20146;-80
2023/06/24 05:40:18;;;;;;;5.63;2.92;;;20.20;99.90;;;;;;7387360;19;20139;-80
2023/06/24 05:42:44;;;;;;;4.10;3.22;;;20.20;99.90;;;;;;7388073;19;20484;-80
2023/06/24 05:45:10;;;;;;;6.03;3.40;;;20.40;99.90;;;;;;7383836;19;20182;-80
2023/06/24 05:47:37;;;;;;;4.85;3.00;;;20.40;99.90;;;;;;7386036;19;21030;-80
2023/06/24 05:50:03;;;;;;;4.13;3.42;;;20.40;99.90;;;;;;7386622;19;20142;-81
2023/06/24 05:52:29;;;;;;;4.93;3.38;;;20.50;99.90;;;;;;7387209;19;20223;-80
2023/06/24 05:54:55;;;;;;;3.60;2.85;;;20.80;99.90;;;;;;7385649;19;20590;-80
2023/06/24 05:57:21;;;;;;;4.00;3.38;;;20.70;99.90;;;;;;7383281;19;20176;-81
2023/06/24 05:59:47;;;;;;;4.25;3.10;;;20.90;99.90;;;;;;7386529;19;20138;-81
2023/06/24 06:02:12;;;;;;;4.13;3.05;;;21.00;99.90;;;;;;7386311;19;20476;-82
2023/06/24 06:04:39;;;;;;;4.32;3.17;;;21.00;99.90;;;;;;7386101;19;20161;-81
2023/06/24 06:07:05;;;;;;;4.72;3.17;;;21.20;99.90;;;;;;7387207;19;20198;-81
2023/06/24 06:09:31;;;;;;;3.78;3.13;;;21.30;99.90;;;;;;7386379;19;20142;-81
2023/06/24 06:11:56;;;;;;;4.20;3.08;;;21.40;99.90;;;;;;7384107;19;20126;-81
2023/06/24 06:14:22;;;;;;;4.78;3.38;;;21.80;99.90;;;;;;7386011;19;20814;-82
2023/06/24 06:16:50;;;;;;;2.95;2.63;;;23.40;99.90;;;;;;7385085;19;20135;-81
2023/06/24 06:19:16;;;;;;;4.30;2.78;;;25.10;99.90;;;;;;7392688;19;20139;-81
2023/06/24 06:21:42;;;;;;;4.03;2.92;;;26.40;99.90;;;;;;7394292;19;20253;-80
2023/06/24 06:24:10;;;;;;;3.60;2.80;;;27.30;99.90;;;;;;7391485;19;20134;-82
2023/06/24 06:26:44;;;;;;;4.43;2.88;;;28.70;99.10;;;;;;7393511;19;20149;-81
2023/06/24 06:29:10;;;;;;;3.38;2.55;;;29.10;96.30;;;;;;7392962;19;20138;-79
2023/06/24 06:31:36;;;;;;;2.97;2.38;;;30.60;94.20;;;;;;7392908;19;20146;-81
2023/06/24 06:34:02;;;;;;;3.70;2.60;;;31.20;92.50;;;;;;7394031;19;20142;-82
2023/06/24 06:36:30;;;;;;;2.95;2.25;;;31.70;91.00;;;;;;7392500;19;20150;-82
2023/06/24 06:38:56;;;;;;;2.95;2.50;;;32.20;87.60;;;;;;7393018;19;20138;-81
2023/06/24 06:41:24;;;;;;;2.50;2.30;;;32.40;86.80;;;;;;7392841;19;20155;-81
2023/06/24 06:43:53;;;;;;;3.53;2.67;;;32.80;85.00;;;;;;7390836;19;20223;-81
2023/06/24 06:46:37;;;;;;;2.65;2.15;;;33.60;80.40;;;;;;7388550;19;20253;-82
2023/06/24 06:49:03;;;;;;;2.53;2.33;;;33.70;79.30;;;;;;7390303;19;20138;-84
2023/06/24 06:51:28;;;;;;;2.83;2.20;;;33.70;78.30;;;;;;7392048;19;20162;-82
2023/06/24 06:53:54;;;;;;;2.75;2.17;;;34.20;76.20;;;;;;7390129;19;20134;-82
2023/06/24 06:56:24;;;;;;;2.50;2.30;;;34.60;74.30;;;;;;7391157;19;20139;-81
2023/06/24 06:58:50;;;;;;;4.90;2.60;;;34.10;74.10;;;;;;7384869;19;20209;-83
2023/06/24 07:01:18;;;;;;;3.35;2.45;;;34.10;73.40;;;;;;7390745;19;20177;-84
2023/06/24 07:03:44;;;;;;;2.65;1.77;;;33.60;72.90;;;;;;7389835;19;20615;-84
2023/06/24 07:06:10;;;;;;;2.58;2.28;;;33.90;72.00;;;;;;7390382;19;20648;-82
2023/06/24 07:08:36;;;;;;;2.80;2.30;;;33.80;72.00;;;;;;7391032;19;20202;-84
2023/06/24 07:11:04;;;;;;;2.60;2.28;;;33.60;71.90;;;;;;7389967;19;20318;-82
2023/06/24 07:13:30;;;;;;;2.35;2.10;;;33.50;71.20;;;;;;7391477;19;20123;-82
2023/06/24 07:15:56;;;;;;;4.05;2.50;;;33.60;71.30;;;;;;7392322;19;20141;-83
2023/06/24 07:18:21;;;;;;;4.07;2.50;;;33.50;71.10;;;;;;7392155;19;20130;-83
2023/06/24 07:20:47;;;;;;;2.80;2.50;;;33.30;71.40;;;;;;7389946;19;20139;-83
2023/06/24 07:23:13;;;;;;;2.25;1.88;;;32.90;72.20;;;;;;7391275;19;20142;-81
2023/06/24 07:25:39;;;;;;;3.92;2.50;;;32.80;72.10;;;;;;7389708;19;20150;-81
2023/06/24 07:28:04;;;;;;;2.40;2.20;;;32.20;72.80;;;;;;7389180;19;20622;-80
2023/06/24 07:30:30;;;;;;;3.20;2.58;;;32.40;72.50;;;;;;7390947;19;20403;-82
2023/06/24 07:32:59;;;;;;;4.25;2.53;;;32.30;71.10;;;;;;7390716;19;20130;-81
2023/06/24 07:35:27;;;;;;;2.95;2.45;;;31.90;71.70;;;;;;7395584;19;20154;-82
2023/06/24 07:37:53;;;;;;;2.60;2.30;;;31.60;73.10;;;;;;7405345;19;20242;-80
2023/06/24 07:40:19;;;;;;;3.97;3.17;;;31.50;72.50;;;;;;7386366;19;20171;-80
2023/06/24 07:42:44;;;;;;;4.90;2.83;;;31.40;73.00;;;;;;7384659;19;20172;-81
2023/06/24 07:45:10;;;;;;;4.70;2.85;;;30.80;73.60;;;;;;7389464;19;20138;-85
2023/06/24 07:47:36;;;;;;;3.47;2.67;;;30.00;75.40;;;;;;7389175;19;20599;-81
2023/06/24 07:50:02;;;;;;;4.78;2.55;;;29.90;76.40;;;;;;7393059;19;20145;-81
2023/06/24 07:52:27;;;;;;;4.68;2.65;;;30.20;76.10;;;;;;7392757;19;20498;-82
2023/06/24 07:54:53;;;;;;;4.28;2.38;;;30.30;76.30;;;;;;7391285;19;20452;-80
2023/06/24 07:57:20;;;;;;;2.85;2.50;;;30.20;76.50;;;;;;7383657;19;20231;-82
2023/06/24 07:59:47;;;;;;;2.72;2.20;;;30.40;77.50;;;;;;7392075;19;20598;-83
2023/06/24 08:02:12;;;;;;;7.05;2.83;;;30.40;77.20;;;;;;7390856;19;20210;-82
2023/06/24 08:04:38;;;;;;;6.53;2.50;;;30.80;76.40;;;;;;7391256;19;20171;-84
2023/06/24 08:07:04;;;;;;;3.88;2.90;;;30.70;76.70;;;;;;7388738;19;20578;-80
2023/06/24 08:09:30;;;;;;;2.50;2.28;;;30.50;76.80;;;;;;7392038;19;20142;-83
2023/06/24 08:11:56;;;;;;;2.97;2.40;;;30.40;76.40;;;;;;7389614;19;20135;-81
2023/06/24 08:14:22;;;;;;;3.45;2.33;;;30.40;77.00;;;;;;7390101;19;20546;-80
2023/06/24 08:16:47;;;;;;;2.83;2.40;;;30.60;77.20;;;;;;7388587;19;20706;-80
2023/06/24 08:19:14;;;;;;;4.40;2.50;;;30.70;76.10;;;;;;7390543;19;20188;-80
2023/06/24 08:21:40;;;;;;;2.75;2.40;;;30.60;76.20;;;;;;7388721;19;20142;-80
2023/06/24 08:24:06;;;;;;;2.13;1.88;;;30.50;75.70;;;;;;7389400;19;20589;-81
2023/06/24 08:26:32;;;;;;;5.45;2.83;;;30.60;76.10;;;;;;7391468;19;20174;-82
2023/06/24 08:28:59;;;;;;;3.05;2.22;;;31.00;76.20;;;;;;7392375;19;20134;-83
2023/06/24 08:31:25;;;;;;;2.60;1.88;;;30.90;75.70;;;;;;7392495;19;20119;-83
2023/06/24 08:33:55;;;;;;;3.05;2.17;;;30.90;75.40;;;;;;7393173;19;20179;-85
2023/06/24 08:36:27;;;;;;;2.40;2.20;;;30.70;74.30;;;;;;7388563;19;20130;-84
2023/06/24 08:38:53;;;;;;;3.53;2.50;;;30.30;74.70;;;;;;7390280;19;20620;-83
2023/06/24 08:41:19;;;;;;;5.78;2.53;;;29.80;75.60;;;;;;7390000;19;20123;-84
2023/06/24 08:43:44;;;;;;;2.67;2.28;;;29.70;78.50;;;;;;7393505;19;20135;-85
2023/06/24 08:46:12;;;;;;;4.53;2.95;;;30.00;75.70;;;;;;7390454;19;20188;-84
2023/06/24 08:48:40;;;;;;;3.97;2.35;;;30.10;74.50;;;;;;7396345;19;20153;-84
2023/06/24 08:51:08;;;;;;;2.33;2.13;;;30.00;74.70;;;;;;7392295;19;20161;-82
2023/06/24 08:53:37;;;;;;;3.00;2.22;;;29.80;76.00;;;;;;7391443;19;20139;-85
2023/06/24 08:56:04;;;;;;;6.40;2.40;;;29.60;75.70;;;;;;7393579;19;20139;-84
2023/06/24 08:58:30;;;;;;;2.30;2.10;;;29.40;76.70;;;;;;7391427;19;20149;-83
2023/06/24 09:00:56;;;;;;;4.68;2.03;;;29.50;76.50;;;;;;7391128;19;20154;-81
2023/06/24 09:03:22;;;;;;;3.22;2.60;;;29.70;77.10;;;;;;7387270;19;20146;-76
2023/06/24 09:05:48;;;;;;;7.60;2.42;;;29.20;74.40;;;;;;7381528;19;20246;-76
2023/06/24 09:08:15;;;;;;;2.78;2.28;;;28.70;75.30;;;;;;7392467;19;20563;-75
2023/06/24 09:10:42;;;;;;;3.50;2.20;;;28.20;75.80;;;;;;7396673;19;20161;-79
2023/06/24 09:13:07;;;;;;;3.95;2.22;;;27.80;76.00;;;;;;7387203;19;20574;-80
2023/06/24 09:15:35;;;;;;;3.15;2.40;;;27.60;76.60;;;;;;7390224;19;20214;-75
2023/06/24 09:18:01;;;;;;;4.07;2.58;;;27.10;77.50;;;;;;7388636;19;20155;-82
2023/06/24 09:20:28;;;;;;;3.28;2.47;;;26.90;78.90;;;;;;7394858;19;20131;-78
2023/06/24 09:23:04;;;;;;;2.55;2.30;;;26.90;78.40;;;;;;7389739;19;20151;-77
2023/06/24 09:25:30;;;;;;;3.30;2.25;;;27.10;78.40;;;;;;7391276;19;20142;-75
2023/06/24 09:28:03;;;;;;;2.40;2.20;;;27.20;78.50;;;;;;7392294;19;20134;-79
2023/06/24 09:30:29;;;;;;;3.13;1.88;;;27.30;77.60;;;;;;7394360;19;20145;-77
2023/06/24 09:32:55;;;;;;;3.35;2.38;;;27.20;76.70;;;;;;7390208;19;20500;-75
2023/06/24 09:35:23;;;;;;;2.58;2.30;;;27.10;77.30;;;;;;7390788;19;20145;-77
2023/06/24 09:37:53;;;;;;;3.42;2.50;;;27.10;77.60;;;;;;7392476;19;20138;-77
2023/06/24 09:40:20;;;;;;;5.32;2.72;;;27.10;78.00;;;;;;7387506;19;20138;-77
2023/06/24 09:42:55;;;;;;;2.70;2.15;;;27.10;77.90;;;;;;7389100;19;20670;-75
2023/06/24 09:45:28;;;;;;;2.78;2.50;;;27.20;77.20;;;;;;7382621;19;20148;-76
2023/06/24 09:47:58;;;;;;;3.10;2.25;;;27.40;77.10;;;;;;7385756;19;20146;-77
2023/06/24 09:50:24;;;;;;;2.97;2.30;;;27.40;77.60;;;;;;7386664;19;20149;-80
2023/06/24 09:52:52;;;;;;;2.25;2.05;;;27.50;77.60;;;;;;7386981;19;20633;-77
2023/06/24 09:55:18;;;;;;;2.60;2.08;;;27.60;78.10;;;;;;7386101;19;20488;-77
2023/06/24 09:57:51;;;;;;;3.40;2.30;;;27.60;77.60;;;;;;7386537;19;20141;-77
2023/06/24 10:00:19;;;;;;;3.30;2.40;;;27.80;79.30;;;;;;7386252;19;20135;-79
2023/06/24 10:02:46;;;;;;;2.80;2.50;;;28.00;77.60;;;;;;7386308;19;20150;-78
2023/06/24 10:05:13;;;;;;;2.95;2.40;;;27.90;77.00;;;;;;7383125;19;20155;-77
2023/06/24 10:07:41;;;;;;;3.55;2.30;;;27.50;76.90;;;;;;7385317;19;20486;-77
2023/06/24 10:10:07;;;;;;;2.65;2.15;;;27.30;77.50;;;;;;7385302;19;20154;-79
2023/06/24 10:12:37;;;;;;;2.55;2.28;;;27.30;79.10;;;;;;7386433;19;20170;-81
2023/06/24 10:15:08;;;;;;;2.70;2.15;;;27.40;79.00;;;;;;7383359;19;20162;-80
2023/06/24 10:17:33;;;;;;;2.53;2.17;;;27.80;78.50;;;;;;7382587;19;20138;-82
2023/06/24 10:20:04;;;;;;;3.10;2.17;;;28.10;77.80;;;;;;7384448;19;20167;-81
2023/06/24 10:22:31;;;;;;;2.70;2.20;;;28.10;76.10;;;;;;7382402;19;20229;-80
2023/06/24 10:25:07;;;;;;;2.83;2.47;;;27.50;76.60;;;;;;7385102;19;20134;-81
2023/06/24 10:27:39;;;;;;;5.03;2.10;;;27.80;76.30;;;;;;7384125;19;20146;-82
2023/06/24 10:30:07;;;;;;;4.28;2.80;;;27.80;75.20;;;;;;7382782;19;20150;-83
2023/06/24 10:32:43;;;;;;;2.30;2.10;;;27.50;75.60;;;;;;7386786;19;20138;-78
2023/06/24 10:35:27;;;;;;;2.13;1.83;;;27.50;76.80;;;;;;7384353;19;20599;-79
2023/06/24 10:37:57;;;;;;;2.63;2.25;;;27.60;75.50;;;;;;7381768;19;20500;-80
2023/06/24 10:40:37;;;;;;;2.63;2.13;;;27.80;74.40;;;;;;7383962;19;20170;-81
2023/06/24 10:43:22;;;;;;;2.38;1.95;;;27.90;73.30;;;;;;7384242;19;20146;-80
2023/06/24 10:45:53;;;;;;;2.00;1.80;;;27.90;72.40;;;;;;7377973;19;20535;-81
2023/06/24 10:48:20;;;;;;;2.17;1.90;;;28.00;70.40;;;;;;7386588;19;20176;-83
2023/06/24 10:50:46;;;;;;;3.47;1.70;;;28.00;70.30;;;;;;7383846;19;20475;-82
2023/06/24 10:53:13;;;;;;;2.30;1.88;;;28.00;71.50;;;;;;7385420;19;20150;-81
2023/06/24 10:55:39;;;;;;;2.13;1.92;;;28.00;71.50;;;;;;7383709;19;20134;-81
2023/06/24 10:58:11;;;;;;;2.28;1.55;;;28.00;70.10;;;;;;7385636;19;20135;-80
2023/06/24 11:00:37;;;;;;;2.33;1.83;;;27.80;71.20;;;;;;7383261;19;20489;-80
2023/06/24 11:03:13;;;;;;;2.70;2.10;;;27.80;71.20;;;;;;7381979;19;20157;-79
2023/06/24 11:05:44;;;;;;;2.30;1.90;;;27.80;70.40;;;;;;7389859;19;21502;-78
2023/06/24 11:08:10;;;;;;;1.70;1.60;;;27.70;71.40;;;;;;7389088;19;20597;-79
2023/06/24 11:10:48;;;;;;;2.40;2.00;;;27.70;72.10;;;;;;7389694;19;20148;-79
2023/06/24 11:13:14;;;;;;;3.72;2.28;;;27.90;71.40;;;;;;7391813;19;20139;-79
2023/06/24 11:15:42;;;;;;;2.75;2.30;;;27.80;71.20;;;;;;7391410;19;20158;-81
2023/06/24 11:18:12;;;;;;;2.60;2.30;;;27.70;71.20;;;;;;7388351;19;20139;-78
2023/06/24 11:20:39;;;;;;;2.30;2.05;;;27.80;71.30;;;;;;7389578;19;20154;-78
2023/06/24 11:23:10;;;;;;;2.28;1.85;;;27.70;70.80;;;;;;7388085;19;20673;-77
2023/06/24 11:25:43;;;;;;;2.72;1.98;;;27.70;69.30;;;;;;7386705;19;20146;-78
2023/06/24 11:28:18;;;;;;;2.25;1.88;;;27.70;68.90;;;;;;7388026;19;20153;-79
2023/06/24 11:30:44;;;;;;;2.30;1.92;;;27.80;69.70;;;;;;7389934;19;20617;-80
2023/06/24 11:33:10;;;;;;;3.33;2.50;;;27.80;71.20;;;;;;7389677;19;20150;-78
2023/06/24 11:35:37;;;;;;;2.17;1.90;;;27.90;70.90;;;;;;7388653;19;20150;-78
2023/06/24 11:38:03;;;;;;;4.15;1.80;;;28.10;71.10;;;;;;7386030;19;20897;-80
2023/06/24 11:40:32;;;;;;;2.83;2.17;;;28.10;71.10;;;;;;7390879;19;20515;-81
2023/06/24 11:43:00;;;;;;;3.72;2.40;;;28.40;69.50;;;;;;7389861;19;20143;-81
2023/06/24 11:45:26;;;;;;;2.53;1.95;;;28.30;68.70;;;;;;7389349;19;20595;-80
2023/06/24 11:47:52;;;;;;;2.00;1.80;;;28.20;68.30;;;;;;7389149;19;20151;-81
2023/06/24 11:50:25;;;;;;;3.22;2.20;;;28.10;67.40;;;;;;7391271;19;20134;-82
2023/06/24 11:52:52;;;;;;;2.83;2.15;;;28.00;67.30;;;;;;7391114;19;20138;-81
2023/06/24 11:55:17;;;;;;;1.83;1.63;;;27.90;67.10;;;;;;7391064;19;20140;-82
2023/06/24 11:57:54;;;;;;;2.95;2.05;;;27.80;67.80;;;;;;7390550;19;20876;-82
2023/06/24 12:00:30;;;;;;;3.08;2.60;;;28.00;67.50;;;;;;7388529;19;20135;-82
2023/06/24 12:03:00;;;;;;;3.08;2.20;;;28.00;68.00;;;;;;7388767;19;20141;-83
2023/06/24 12:05:31;;;;;;;2.33;2.13;;;27.90;69.20;;;;;;7386835;19;20191;-81
2023/06/24 12:08:04;;;;;;;3.40;2.33;;;27.70;70.20;;;;;;7389881;19;20194;-81
2023/06/24 12:10:34;;;;;;;2.75;2.15;;;27.70;70.70;;;;;;7388536;19;20156;-82
2023/06/24 12:13:01;;;;;;;3.60;1.80;;;27.90;70.70;;;;;;7386376;19;20130;-80
2023/06/24 12:15:27;;;;;;;2.38;2.17;;;28.00;71.10;;;;;;7384544;19;20210;-82
2023/06/24 12:17:54;;;;;;;2.35;1.75;;;28.20;70.50;;;;;;7391065;19;20131;-83
2023/06/24 12:20:20;;;;;;;3.05;2.22;;;28.10;70.20;;;;;;7392081;19;20157;-81
2023/06/24 12:22:48;;;;;;;2.28;2.05;;;28.30;70.20;;;;;;7390109;19;20147;-80
2023/06/24 12:25:14;;;;;;;2.38;2.17;;;28.50;69.00;;;;;;7387921;19;20166;-82
2023/06/24 12:27:42;;;;;;;1.98;1.77;;;28.40;68.70;;;;;;7389435;19;20131;-82
2023/06/24 12:30:09;;;;;;;2.17;1.92;;;28.40;70.20;;;;;;7387395;19;20177;-83
2023/06/24 12:32:35;;;;;;;2.42;2.00;;;28.30;68.80;;;;;;7389765;19;20184;-80
2023/06/24 12:35:04;;;;;;;2.85;2.05;;;28.30;70.00;;;;;;7386670;19;20150;-80
2023/06/24 12:37:32;;;;;;;2.50;2.03;;;28.40;69.80;;;;;;7385771;19;20139;-81
2023/06/24 12:39:58;;;;;;;4.05;3.10;;;28.70;68.90;;;;;;7389621;19;20149;-80
2023/06/24 12:42:24;;;;;;;3.00;2.70;;;28.90;68.40;;;;;;7388153;19;20177;-80
2023/06/24 12:44:50;;;;;;;2.80;2.05;;;28.90;68.00;;;;;;7387288;19;20150;-80
2023/06/24 12:47:16;;;;;;;3.00;2.00;;;28.80;69.20;;;;;;7385548;19;20621;-80
2023/06/24 12:49:41;;;;;;;2.30;2.00;;;28.80;68.90;;;;;;7387715;19;20134;-79
2023/06/24 12:52:07;;;;;;;2.58;2.17;;;28.60;68.60;;;;;;7389090;19;20462;-82